createdAt,value
2019-03-17T00:00:19.159Z,1000.93
2019-03-17T00:01:19.188Z,1000.91
2019-03-17T00:02:19.210Z,1000.94
2019-03-17T00:03:19.236Z,1000.95
2019-03-17T00:04:30.697Z,1000.96
2019-03-17T00:05:19.291Z,1001.00
2019-03-17T00:06:19.314Z,1000.98
2019-03-17T00:07:19.344Z,1001.03
2019-03-17T00:08:19.365Z,1001.02
2019-03-17T00:09:19.390Z,1001.03
2019-03-17T00:10:19.413Z,1001.10
2019-03-17T00:11:19.441Z,1001.04
2019-03-17T00:12:19.466Z,1001.12
2019-03-17T00:13:19.492Z,1001.15
2019-03-17T00:14:19.517Z,1001.15
2019-03-17T00:15:19.543Z,1001.17
2019-03-17T00:16:19.567Z,1001.14
2019-03-17T00:17:19.593Z,1001.14
2019-03-17T00:18:19.620Z,1001.13
2019-03-17T00:19:19.643Z,1001.19
2019-03-17T00:20:19.669Z,1001.22
2019-03-17T00:21:19.694Z,1001.22
2019-03-17T00:22:19.724Z,1001.23
2019-03-17T00:23:19.746Z,1001.19
2019-03-17T00:24:19.774Z,1001.21
2019-03-17T00:25:19.797Z,1001.23
2019-03-17T00:26:19.828Z,1001.23
2019-03-17T00:27:19.858Z,1001.20
2019-03-17T00:28:19.873Z,1001.23
2019-03-17T00:29:19.904Z,1001.27
2019-03-17T00:30:19.925Z,1001.25
2019-03-17T00:31:24.242Z,1001.29
2019-03-17T00:32:19.981Z,1001.25
2019-03-17T00:33:20.022Z,1001.22
2019-03-17T00:34:20.027Z,1001.19
2019-03-17T00:35:20.056Z,1001.23
2019-03-17T00:36:20.079Z,1001.23
2019-03-17T00:37:20.104Z,1001.25
2019-03-17T00:38:20.130Z,1001.25
2019-03-17T00:39:20.158Z,1001.24
2019-03-17T00:40:20.183Z,1001.27
2019-03-17T00:41:20.213Z,1001.27
2019-03-17T00:42:20.239Z,1001.20
2019-03-17T00:43:20.257Z,1001.19
2019-03-17T00:44:20.284Z,1001.18
2019-03-17T00:45:20.313Z,1001.20
2019-03-17T00:46:20.335Z,1001.18
2019-03-17T00:47:20.361Z,1001.21
2019-03-17T00:48:20.386Z,1001.15
2019-03-17T00:49:20.411Z,1001.13
2019-03-17T00:50:20.440Z,1001.15
2019-03-17T00:51:20.478Z,1001.11
2019-03-17T00:52:20.489Z,1001.07
2019-03-17T00:53:20.523Z,1001.06
2019-03-17T00:54:20.538Z,1001.07
2019-03-17T00:55:20.564Z,1001.07
2019-03-17T00:56:20.591Z,1001.07
2019-03-17T00:57:20.620Z,1001.01
2019-03-17T00:58:20.645Z,1001.01
2019-03-17T00:59:20.670Z,1001.03
2019-03-17T01:00:20.693Z,1001.03
2019-03-17T01:01:20.719Z,1001.03
2019-03-17T01:02:20.746Z,1001.01
2019-03-17T01:03:20.773Z,1000.99
2019-03-17T01:04:20.796Z,1000.99
2019-03-17T01:05:20.823Z,1000.96
2019-03-17T01:06:20.851Z,1000.98
2019-03-17T01:07:20.875Z,1000.93
2019-03-17T01:08:20.899Z,1000.92
2019-03-17T01:09:20.925Z,1000.89
2019-03-17T01:10:20.954Z,1000.89
2019-03-17T01:11:20.978Z,1000.87
2019-03-17T01:12:21.000Z,1000.85
2019-03-17T01:13:21.028Z,1000.85
2019-03-17T01:14:21.058Z,1000.85
2019-03-17T01:15:21.080Z,1000.85
2019-03-17T01:16:21.104Z,1000.81
2019-03-17T01:17:21.128Z,1000.81
2019-03-17T01:18:21.157Z,1000.81
2019-03-17T01:19:21.189Z,1000.85
2019-03-17T01:20:21.209Z,1000.83
2019-03-17T01:21:21.288Z,1000.90
2019-03-17T01:22:21.259Z,1000.92
2019-03-17T01:23:21.287Z,1000.99
2019-03-17T01:24:21.331Z,1001.05
2019-03-17T01:25:21.333Z,1001.06
2019-03-17T01:26:21.363Z,1001.06
2019-03-17T01:27:21.387Z,1001.03
2019-03-17T01:28:21.413Z,1001.00
2019-03-17T01:29:21.438Z,1001.00
2019-03-17T01:30:21.463Z,1001.03
2019-03-17T01:31:21.489Z,1001.02
2019-03-17T01:32:21.519Z,1001.00
2019-03-17T01:33:21.596Z,1000.99
2019-03-17T01:34:21.568Z,1000.99
2019-03-17T01:35:21.593Z,1001.02
2019-03-17T01:36:21.622Z,1001.02
2019-03-17T01:37:21.644Z,1001.00
2019-03-17T01:38:21.670Z,1000.99
2019-03-17T01:39:21.698Z,1000.99
2019-03-17T01:40:21.727Z,1000.99
2019-03-17T01:41:21.748Z,1000.96
2019-03-17T01:42:21.778Z,1000.94
2019-03-17T01:43:21.800Z,1000.96
2019-03-17T01:44:21.829Z,1001.04
2019-03-17T01:45:21.852Z,1001.06
2019-03-17T01:46:21.881Z,1001.02
2019-03-17T01:47:21.906Z,1000.98
2019-03-17T01:48:21.932Z,1001.05
2019-03-17T01:49:21.955Z,1000.99
2019-03-17T01:50:21.984Z,1000.96
2019-03-17T01:51:22.013Z,1000.96
2019-03-17T01:52:22.039Z,1000.93
2019-03-17T01:53:22.061Z,1001.00
2019-03-17T01:54:22.086Z,1000.98
2019-03-17T01:55:22.112Z,1000.98
2019-03-17T01:56:22.137Z,1001.01
2019-03-17T01:57:22.163Z,1000.97
2019-03-17T01:58:22.190Z,1000.97
2019-03-17T01:59:22.217Z,1000.97
2019-03-17T02:00:22.242Z,1000.96
2019-03-17T02:01:22.266Z,1000.96
2019-03-17T02:02:22.299Z,1000.95
2019-03-17T02:03:22.321Z,1000.95
2019-03-17T02:04:22.347Z,1000.92
2019-03-17T02:05:22.696Z,1000.86
2019-03-17T02:06:22.394Z,1000.84
2019-03-17T02:07:22.419Z,1000.83
2019-03-17T02:08:22.448Z,1000.84
2019-03-17T02:09:22.472Z,1000.81
2019-03-17T02:10:22.497Z,1000.81
2019-03-17T02:11:22.525Z,1000.86
2019-03-17T02:12:22.549Z,1000.87
2019-03-17T02:13:22.575Z,1000.86
2019-03-17T02:14:22.601Z,1000.84
2019-03-17T02:15:22.629Z,1000.81
2019-03-17T02:16:22.657Z,1000.78
2019-03-17T02:17:22.679Z,1000.77
2019-03-17T02:18:22.704Z,1000.74
2019-03-17T02:19:22.728Z,1000.74
2019-03-17T02:20:22.754Z,1000.77
2019-03-17T02:21:22.779Z,1000.78
2019-03-17T02:22:22.809Z,1000.76
2019-03-17T02:23:22.831Z,1000.75
2019-03-17T02:24:22.856Z,1000.74
2019-03-17T02:25:22.885Z,1000.77
2019-03-17T02:26:22.910Z,1000.70
2019-03-17T02:27:22.934Z,1000.71
2019-03-17T02:28:22.960Z,1000.73
2019-03-17T02:29:22.985Z,1000.75
2019-03-17T02:30:23.015Z,1000.72
2019-03-17T02:31:23.040Z,1000.73
2019-03-17T02:32:23.064Z,1000.79
2019-03-17T02:33:23.087Z,1000.84
2019-03-17T02:34:23.117Z,1000.87
2019-03-17T02:35:38.018Z,1000.81
2019-03-17T02:36:23.167Z,1000.79
2019-03-17T02:37:23.206Z,1000.67
2019-03-17T02:38:23.218Z,1000.62
2019-03-17T02:39:26.145Z,1000.60
2019-03-17T02:40:23.269Z,1000.62
2019-03-17T02:41:23.301Z,1000.67
2019-03-17T02:42:23.323Z,1000.76
2019-03-17T02:43:23.352Z,1000.63
2019-03-17T02:44:23.374Z,1000.56
2019-03-17T02:45:23.395Z,1000.59
2019-03-17T02:46:23.425Z,1000.59
2019-03-17T02:47:23.448Z,1000.54
2019-03-17T02:48:23.478Z,1000.53
2019-03-17T02:49:23.505Z,1000.53
2019-03-17T02:50:23.526Z,1000.53
2019-03-17T02:51:23.552Z,1000.53
2019-03-17T02:52:23.578Z,1000.46
2019-03-17T02:53:23.605Z,1000.48
2019-03-17T02:54:23.630Z,1000.42
2019-03-17T02:55:23.656Z,1000.46
2019-03-17T02:56:23.681Z,1000.42
2019-03-17T02:57:23.708Z,1000.37
2019-03-17T02:58:23.731Z,1000.39
2019-03-17T02:59:23.758Z,1000.41
2019-03-17T03:00:23.783Z,1000.40
2019-03-17T03:01:23.814Z,1000.44
2019-03-17T03:02:23.834Z,1000.44
2019-03-17T03:03:23.863Z,1000.47
2019-03-17T03:04:23.885Z,1000.49
2019-03-17T03:05:23.915Z,1000.47
2019-03-17T03:06:23.939Z,1000.45
2019-03-17T03:07:23.962Z,1000.43
2019-03-17T03:08:24.046Z,1000.39
2019-03-17T03:09:24.019Z,1000.40
2019-03-17T03:10:24.039Z,1000.40
2019-03-17T03:11:24.074Z,1000.46
2019-03-17T03:12:24.092Z,1000.44
2019-03-17T03:13:24.126Z,1000.42
2019-03-17T03:14:24.155Z,1000.40
2019-03-17T03:15:24.168Z,1000.36
2019-03-17T03:16:24.196Z,1000.33
2019-03-17T03:17:24.220Z,1000.35
2019-03-17T03:18:24.260Z,1000.36
2019-03-17T03:19:24.275Z,1000.33
2019-03-17T03:20:24.301Z,1000.32
2019-03-17T03:21:24.322Z,1000.36
2019-03-17T03:22:24.448Z,1000.33
2019-03-17T03:23:24.378Z,1000.32
2019-03-17T03:24:24.400Z,1000.30
2019-03-17T03:25:24.426Z,1000.29
2019-03-17T03:26:24.456Z,1000.32
2019-03-17T03:27:24.480Z,1000.27
2019-03-17T03:28:24.507Z,1000.31
2019-03-17T03:29:27.337Z,1000.32
2019-03-17T03:30:24.557Z,1000.32
2019-03-17T03:31:24.581Z,1000.27
2019-03-17T03:32:24.608Z,1000.29
2019-03-17T03:33:24.632Z,1000.28
2019-03-17T03:34:24.659Z,1000.32
2019-03-17T03:35:24.695Z,1000.30
2019-03-17T03:36:24.714Z,1000.30
2019-03-17T03:37:24.734Z,1000.30
2019-03-17T03:38:24.762Z,1000.25
2019-03-17T03:39:24.787Z,1000.29
2019-03-17T03:40:24.818Z,1000.28
2019-03-17T03:41:24.841Z,1000.20
2019-03-17T03:42:24.864Z,1000.22
2019-03-17T03:43:24.889Z,1000.22
2019-03-17T03:44:24.915Z,1000.22
2019-03-17T03:45:24.941Z,1000.25
2019-03-17T03:46:24.972Z,1000.28
2019-03-17T03:47:25.002Z,1000.23
2019-03-17T03:48:25.023Z,1000.26
2019-03-17T03:49:25.049Z,1000.25
2019-03-17T03:50:25.081Z,1000.27
2019-03-17T03:51:25.099Z,1000.26
2019-03-17T03:52:25.138Z,1000.19
2019-03-17T03:53:25.177Z,1000.24
2019-03-17T03:54:25.176Z,1000.21
2019-03-17T03:55:25.204Z,1000.23
2019-03-17T03:56:25.231Z,1000.20
2019-03-17T03:57:25.249Z,1000.21
2019-03-17T03:58:25.275Z,1000.23
2019-03-17T03:59:25.309Z,1000.13
2019-03-17T04:00:25.335Z,1000.18
2019-03-17T04:01:25.360Z,1000.23
2019-03-17T04:02:25.382Z,1000.18
2019-03-17T04:03:25.405Z,1000.16
2019-03-17T04:04:25.432Z,1000.20
2019-03-17T04:05:25.457Z,1000.19
2019-03-17T04:06:27.089Z,1000.21
2019-03-17T04:07:25.508Z,1000.16
2019-03-17T04:08:25.537Z,1000.16
2019-03-17T04:09:25.562Z,1000.12
2019-03-17T04:10:25.584Z,1000.13
2019-03-17T04:11:25.610Z,1000.19
2019-03-17T04:12:25.746Z,1000.19
2019-03-17T04:13:25.667Z,1000.19
2019-03-17T04:14:25.689Z,1000.17
2019-03-17T04:15:25.720Z,1000.17
2019-03-17T04:16:25.741Z,1000.21
2019-03-17T04:17:25.766Z,1000.24
2019-03-17T04:18:25.794Z,1000.19
2019-03-17T04:19:25.829Z,1000.19
2019-03-17T04:20:25.844Z,1000.18
2019-03-17T04:21:25.879Z,1000.19
2019-03-17T04:22:25.899Z,1000.18
2019-03-17T04:23:25.920Z,1000.22
2019-03-17T04:24:25.957Z,1000.25
2019-03-17T04:25:25.974Z,1000.22
2019-03-17T04:26:25.998Z,1000.24
2019-03-17T04:27:26.026Z,1000.25
2019-03-17T04:28:26.049Z,1000.28
2019-03-17T04:29:26.075Z,1000.28
2019-03-17T04:30:26.102Z,1000.25
2019-03-17T04:31:26.127Z,1000.32
2019-03-17T04:32:26.153Z,1000.31
2019-03-17T04:33:26.177Z,1000.37
2019-03-17T04:34:26.204Z,1000.34
2019-03-17T04:35:26.233Z,1000.31
2019-03-17T04:36:39.098Z,1000.30
2019-03-17T04:37:26.286Z,1000.33
2019-03-17T04:38:26.312Z,1000.34
2019-03-17T04:39:26.336Z,1000.34
2019-03-17T04:40:26.360Z,1000.33
2019-03-17T04:41:26.385Z,1000.32
2019-03-17T04:42:26.418Z,1000.41
2019-03-17T04:43:26.438Z,1000.36
2019-03-17T04:44:26.468Z,1000.37
2019-03-17T04:45:26.491Z,1000.39
2019-03-17T04:46:26.514Z,1000.35
2019-03-17T04:47:26.541Z,1000.35
2019-03-17T04:48:26.578Z,1000.32
2019-03-17T04:49:26.595Z,1000.34
2019-03-17T04:50:26.620Z,1000.36
2019-03-17T04:51:26.644Z,1000.36
2019-03-17T04:52:26.674Z,1000.33
2019-03-17T04:53:26.695Z,1000.33
2019-03-17T04:54:26.721Z,1000.26
2019-03-17T04:55:26.750Z,1000.28
2019-03-17T04:56:26.777Z,1000.29
2019-03-17T04:57:26.800Z,1000.33
2019-03-17T04:58:26.885Z,1000.31
2019-03-17T04:59:26.853Z,1000.37
2019-03-17T05:00:26.880Z,1000.37
2019-03-17T05:01:26.904Z,1000.37
2019-03-17T05:02:26.932Z,1000.34
2019-03-17T05:03:26.956Z,1000.38
2019-03-17T05:04:26.982Z,1000.38
2019-03-17T05:05:27.012Z,1000.34
2019-03-17T05:06:27.034Z,1000.38
2019-03-17T05:07:27.060Z,1000.36
2019-03-17T05:08:27.087Z,1000.37
2019-03-17T05:09:27.114Z,1000.34
2019-03-17T05:10:27.141Z,1000.34
2019-03-17T05:11:27.167Z,1000.34
2019-03-17T05:12:27.193Z,1000.31
2019-03-17T05:13:27.217Z,1000.40
2019-03-17T05:14:27.245Z,1000.29
2019-03-17T05:15:27.270Z,1000.35
2019-03-17T05:16:27.321Z,1000.35
2019-03-17T05:17:27.324Z,1000.36
2019-03-17T05:18:27.351Z,1000.36
2019-03-17T05:19:27.377Z,1000.30
2019-03-17T05:20:27.404Z,1000.30
2019-03-17T05:21:27.428Z,1000.37
2019-03-17T05:22:27.454Z,1000.33
2019-03-17T05:23:27.497Z,1000.38
2019-03-17T05:24:27.510Z,1000.35
2019-03-17T05:25:27.533Z,1000.37
2019-03-17T05:26:27.612Z,1000.39
2019-03-17T05:27:27.614Z,1000.39
2019-03-17T05:28:27.612Z,1000.39
2019-03-17T05:29:27.639Z,1000.38
2019-03-17T05:30:27.665Z,1000.37
2019-03-17T05:31:27.692Z,1000.36
2019-03-17T05:32:27.720Z,1000.34
2019-03-17T05:33:27.742Z,1000.34
2019-03-17T05:34:27.775Z,1000.36
2019-03-17T05:35:27.799Z,1000.36
2019-03-17T05:36:27.822Z,1000.35
2019-03-17T05:37:27.849Z,1000.37
2019-03-17T05:38:27.875Z,1000.35
2019-03-17T05:39:27.902Z,1000.34
2019-03-17T05:40:27.928Z,1000.34
2019-03-17T05:41:27.960Z,1000.33
2019-03-17T05:42:27.985Z,1000.28
2019-03-17T05:43:28.009Z,1000.27
2019-03-17T05:44:28.035Z,1000.25
2019-03-17T05:45:28.067Z,1000.27
2019-03-17T05:46:28.087Z,1000.28
2019-03-17T05:47:28.114Z,1000.25
2019-03-17T05:48:28.141Z,1000.23
2019-03-17T05:49:28.168Z,1000.25
2019-03-17T05:50:28.196Z,1000.25
2019-03-17T05:51:28.220Z,1000.27
2019-03-17T05:52:28.249Z,1000.25
2019-03-17T05:53:28.276Z,1000.29
2019-03-17T05:54:28.303Z,1000.25
2019-03-17T05:55:28.330Z,1000.28
2019-03-17T05:56:28.355Z,1000.29
2019-03-17T05:57:28.383Z,1000.26
2019-03-17T05:58:28.408Z,1000.25
2019-03-17T05:59:28.433Z,1000.22
2019-03-17T06:00:28.461Z,1000.24
2019-03-17T06:01:28.488Z,1000.19
2019-03-17T06:02:28.513Z,1000.21
2019-03-17T06:03:28.545Z,1000.17
2019-03-17T06:04:28.568Z,1000.14
2019-03-17T06:05:28.610Z,1000.17
2019-03-17T06:06:28.623Z,1000.15
2019-03-17T06:07:28.648Z,1000.14
2019-03-17T06:08:28.674Z,1000.12
2019-03-17T06:09:28.709Z,1000.16
2019-03-17T06:10:28.731Z,1000.12
2019-03-17T06:11:28.755Z,1000.14
2019-03-17T06:12:28.787Z,1000.14
2019-03-17T06:13:28.815Z,1000.09
2019-03-17T06:14:28.858Z,1000.18
2019-03-17T06:15:28.865Z,1000.17
2019-03-17T06:16:28.890Z,1000.14
2019-03-17T06:17:28.917Z,1000.14
2019-03-17T06:18:28.947Z,1000.11
2019-03-17T06:19:28.971Z,1000.14
2019-03-17T06:20:29.001Z,1000.13
2019-03-17T06:21:29.029Z,1000.14
2019-03-17T06:22:29.064Z,1000.08
2019-03-17T06:23:29.079Z,1000.07
2019-03-17T06:24:29.110Z,1000.10
2019-03-17T06:25:29.148Z,1000.07
2019-03-17T06:26:29.162Z,1000.09
2019-03-17T06:27:29.189Z,1000.11
2019-03-17T06:28:29.215Z,1000.07
2019-03-17T06:29:29.248Z,1000.11
2019-03-17T06:30:29.271Z,1000.03
2019-03-17T06:31:29.299Z,1000.12
2019-03-17T06:32:29.333Z,1000.13
2019-03-17T06:33:29.350Z,1000.12
2019-03-17T06:34:29.379Z,1000.13
2019-03-17T06:35:29.406Z,1000.11
2019-03-17T06:36:29.434Z,1000.12
2019-03-17T06:37:31.220Z,1000.11
2019-03-17T06:38:29.490Z,1000.14
2019-03-17T06:39:29.516Z,1000.11
2019-03-17T06:40:29.548Z,1000.15
2019-03-17T06:41:29.569Z,1000.14
2019-03-17T06:42:29.596Z,1000.10
2019-03-17T06:43:29.625Z,1000.10
2019-03-17T06:44:29.655Z,1000.09
2019-03-17T06:45:29.679Z,1000.12
2019-03-17T06:46:29.709Z,1000.12
2019-03-17T06:47:29.739Z,1000.10
2019-03-17T06:48:29.763Z,1000.14
2019-03-17T06:49:29.791Z,1000.13
2019-03-17T06:50:29.817Z,1000.18
2019-03-17T06:51:29.849Z,1000.11
2019-03-17T06:52:29.874Z,1000.16
2019-03-17T06:53:29.900Z,1000.09
2019-03-17T06:54:29.930Z,1000.10
2019-03-17T06:55:29.960Z,1000.13
2019-03-17T06:56:30.017Z,1000.08
2019-03-17T06:57:30.010Z,1000.05
2019-03-17T06:58:30.038Z,1000.10
2019-03-17T06:59:30.066Z,1000.07
2019-03-17T07:00:30.093Z,1000.04
2019-03-17T07:01:30.121Z,1000.00
2019-03-17T07:02:30.149Z,1000.00
2019-03-17T07:03:30.204Z,1000.01
2019-03-17T07:04:30.208Z,1000.00
2019-03-17T07:05:30.236Z,999.98
2019-03-17T07:06:30.259Z,999.94
2019-03-17T07:07:42.909Z,999.95
2019-03-17T07:08:30.315Z,999.96
2019-03-17T07:09:30.345Z,999.85
2019-03-17T07:10:30.376Z,999.80
2019-03-17T07:11:30.396Z,999.86
2019-03-17T07:12:30.426Z,999.88
2019-03-17T07:13:30.455Z,999.85
2019-03-17T07:14:30.485Z,999.80
2019-03-17T07:15:30.511Z,999.83
2019-03-17T07:16:30.538Z,999.82
2019-03-17T07:17:30.566Z,999.79
2019-03-17T07:18:30.594Z,999.77
2019-03-17T07:19:30.626Z,999.72
2019-03-17T07:20:30.655Z,999.75
2019-03-17T07:21:30.681Z,999.74
2019-03-17T07:22:30.710Z,999.71
2019-03-17T07:23:30.736Z,999.79
2019-03-17T07:24:30.766Z,999.75
2019-03-17T07:25:30.793Z,999.67
2019-03-17T07:26:30.823Z,999.77
2019-03-17T07:27:30.851Z,999.70
2019-03-17T07:28:30.878Z,999.67
2019-03-17T07:29:30.905Z,999.62
2019-03-17T07:30:30.938Z,999.62
2019-03-17T07:31:30.971Z,999.59
2019-03-17T07:32:30.995Z,999.58
2019-03-17T07:33:31.019Z,999.53
2019-03-17T07:34:31.050Z,999.60
2019-03-17T07:35:31.089Z,999.49
2019-03-17T07:36:31.107Z,999.52
2019-03-17T07:37:31.152Z,999.56
2019-03-17T07:38:31.163Z,999.51
2019-03-17T07:39:31.191Z,999.57
2019-03-17T07:40:31.222Z,999.52
2019-03-17T07:41:31.246Z,999.47
2019-03-17T07:42:32.617Z,999.48
2019-03-17T07:43:31.306Z,999.50
2019-03-17T07:44:31.336Z,999.48
2019-03-17T07:45:31.365Z,999.43
2019-03-17T07:46:31.396Z,999.51
2019-03-17T07:47:31.425Z,999.51
2019-03-17T07:48:31.458Z,999.42
2019-03-17T07:49:31.483Z,999.42
2019-03-17T07:50:31.511Z,999.39
2019-03-17T07:51:31.544Z,999.44
2019-03-17T07:52:31.566Z,999.42
2019-03-17T07:53:31.595Z,999.38
2019-03-17T07:54:31.624Z,999.38
2019-03-17T07:55:31.655Z,999.42
2019-03-17T07:56:31.689Z,999.46
2019-03-17T07:57:31.713Z,999.44
2019-03-17T07:58:31.744Z,999.46
2019-03-17T07:59:31.778Z,999.45
2019-03-17T08:00:32.545Z,999.44
2019-03-17T08:01:31.828Z,999.49
2019-03-17T08:02:31.857Z,999.45
2019-03-17T08:03:31.889Z,999.46
2019-03-17T08:04:41.965Z,999.53
2019-03-17T08:05:31.944Z,999.49
2019-03-17T08:06:31.973Z,999.44
2019-03-17T08:07:32.001Z,999.48
2019-03-17T08:08:32.106Z,999.47
2019-03-17T08:09:32.062Z,999.47
2019-03-17T08:10:32.090Z,999.49
2019-03-17T08:11:32.120Z,999.44
2019-03-17T08:12:32.152Z,999.54
2019-03-17T08:13:32.175Z,999.47
2019-03-17T08:14:32.205Z,999.46
2019-03-17T08:15:32.235Z,999.50
2019-03-17T08:16:32.264Z,999.51
2019-03-17T08:17:32.296Z,999.53
2019-03-17T08:18:32.320Z,999.45
2019-03-17T08:19:32.350Z,999.46
2019-03-17T08:20:32.379Z,999.41
2019-03-17T08:21:32.408Z,999.48
2019-03-17T08:22:32.438Z,999.43
2019-03-17T08:23:32.474Z,999.47
2019-03-17T08:24:32.499Z,999.38
2019-03-17T08:25:32.527Z,999.39
2019-03-17T08:26:32.561Z,999.38
2019-03-17T08:27:32.590Z,999.32
2019-03-17T08:28:32.614Z,999.23
2019-03-17T08:29:32.646Z,999.32
2019-03-17T08:30:32.675Z,999.28
2019-03-17T08:31:32.708Z,999.26
2019-03-17T08:32:32.735Z,999.26
2019-03-17T08:33:32.764Z,999.29
2019-03-17T08:34:32.792Z,999.32
2019-03-17T08:35:32.916Z,999.30
2019-03-17T08:36:32.855Z,999.25
2019-03-17T08:37:32.882Z,999.19
2019-03-17T08:38:32.912Z,999.20
2019-03-17T08:39:32.942Z,999.21
2019-03-17T08:40:32.974Z,999.20
2019-03-17T08:41:33.005Z,999.18
2019-03-17T08:42:33.033Z,999.11
2019-03-17T08:43:33.062Z,999.16
2019-03-17T08:44:33.094Z,999.11
2019-03-17T08:45:33.124Z,999.06
2019-03-17T08:46:33.153Z,999.17
2019-03-17T08:47:33.185Z,999.18
2019-03-17T08:48:33.212Z,999.06
2019-03-17T08:49:33.244Z,999.05
2019-03-17T08:50:33.273Z,999.10
2019-03-17T08:51:33.444Z,999.05
2019-03-17T08:52:34.459Z,999.02
2019-03-17T08:53:33.362Z,999.03
2019-03-17T08:54:33.390Z,999.08
2019-03-17T08:55:33.429Z,998.97
2019-03-17T08:56:33.455Z,999.00
2019-03-17T08:57:33.483Z,999.05
2019-03-17T08:58:33.512Z,999.02
2019-03-17T08:59:33.540Z,999.00
2019-03-17T09:00:33.573Z,998.95
2019-03-17T09:01:33.602Z,998.97
2019-03-17T09:02:33.633Z,998.95
2019-03-17T09:03:33.664Z,998.91
2019-03-17T09:04:33.699Z,998.91
2019-03-17T09:05:33.724Z,998.89
2019-03-17T09:06:33.753Z,998.87
2019-03-17T09:07:33.785Z,998.85
2019-03-17T09:08:35.269Z,998.87
2019-03-17T09:09:33.846Z,998.99
2019-03-17T09:10:33.874Z,998.85
2019-03-17T09:11:33.905Z,998.85
2019-03-17T09:12:33.940Z,998.96
2019-03-17T09:13:33.967Z,998.91
2019-03-17T09:14:33.996Z,998.91
2019-03-17T09:15:34.039Z,998.86
2019-03-17T09:16:34.057Z,998.94
2019-03-17T09:17:34.088Z,998.92
2019-03-17T09:18:34.115Z,998.93
2019-03-17T09:19:34.145Z,998.97
2019-03-17T09:20:34.175Z,998.84
2019-03-17T09:21:34.204Z,998.84
2019-03-17T09:22:34.234Z,998.83
2019-03-17T09:23:34.265Z,998.90
2019-03-17T09:24:34.297Z,998.84
2019-03-17T09:25:34.323Z,998.76
2019-03-17T09:26:34.356Z,998.70
2019-03-17T09:27:34.390Z,998.74
2019-03-17T09:28:34.414Z,998.54
2019-03-17T09:29:34.444Z,998.66
2019-03-17T09:30:34.522Z,998.65
2019-03-17T09:31:34.504Z,998.74
2019-03-17T09:32:34.534Z,998.79
2019-03-17T09:33:34.559Z,998.68
2019-03-17T09:34:34.589Z,998.70
2019-03-17T09:35:34.619Z,998.64
2019-03-17T09:36:34.649Z,998.69
2019-03-17T09:37:34.680Z,998.59
2019-03-17T09:38:46.447Z,998.52
2019-03-17T09:39:34.736Z,998.60
2019-03-17T09:40:34.766Z,998.60
2019-03-17T09:41:34.798Z,998.56
2019-03-17T09:42:34.827Z,998.55
2019-03-17T09:43:34.853Z,998.56
2019-03-17T09:44:34.883Z,998.54
2019-03-17T09:45:34.954Z,998.47
2019-03-17T09:46:34.951Z,998.51
2019-03-17T09:47:34.968Z,998.46
2019-03-17T09:48:34.999Z,998.51
2019-03-17T09:49:35.031Z,998.47
2019-03-17T09:50:35.056Z,998.38
2019-03-17T09:51:35.087Z,998.50
2019-03-17T09:52:35.115Z,998.43
2019-03-17T09:53:35.145Z,998.43
2019-03-17T09:54:35.175Z,998.44
2019-03-17T09:55:35.204Z,998.48
2019-03-17T09:56:35.235Z,998.35
2019-03-17T09:57:35.262Z,998.35
2019-03-17T09:58:35.293Z,998.35
2019-03-17T09:59:35.319Z,998.40
2019-03-17T10:00:35.347Z,998.35
2019-03-17T10:01:35.374Z,998.31
2019-03-17T10:02:35.418Z,998.38
2019-03-17T10:03:35.431Z,998.30
2019-03-17T10:04:35.464Z,998.24
2019-03-17T10:05:35.488Z,998.26
2019-03-17T10:06:35.517Z,998.28
2019-03-17T10:07:35.547Z,998.03
2019-03-17T10:08:35.579Z,998.23
2019-03-17T10:09:35.609Z,998.24
2019-03-17T10:10:35.635Z,998.18
2019-03-17T10:11:35.661Z,998.23
2019-03-17T10:12:35.691Z,998.17
2019-03-17T10:13:35.724Z,998.21
2019-03-17T10:14:35.748Z,998.22
2019-03-17T10:15:35.775Z,998.24
2019-03-17T10:16:35.805Z,998.30
2019-03-17T10:17:35.849Z,998.27
2019-03-17T10:18:35.862Z,998.20
2019-03-17T10:19:35.892Z,998.19
2019-03-17T10:20:35.920Z,998.24
2019-03-17T10:21:35.952Z,998.17
2019-03-17T10:22:35.998Z,998.14
2019-03-17T10:23:36.006Z,998.18
2019-03-17T10:24:36.047Z,998.23
2019-03-17T10:25:36.063Z,998.16
2019-03-17T10:26:36.091Z,998.09
2019-03-17T10:27:36.124Z,998.14
2019-03-17T10:28:36.147Z,998.15
2019-03-17T10:29:36.174Z,998.15
2019-03-17T10:30:36.212Z,998.09
2019-03-17T10:31:36.231Z,998.03
2019-03-17T10:32:36.265Z,998.09
2019-03-17T10:33:36.287Z,998.06
2019-03-17T10:34:36.315Z,998.05
2019-03-17T10:35:36.370Z,997.96
2019-03-17T10:36:36.372Z,998.08
2019-03-17T10:37:36.398Z,998.08
2019-03-17T10:38:36.437Z,997.93
2019-03-17T10:39:36.455Z,998.03
2019-03-17T10:40:36.489Z,998.05
2019-03-17T10:41:36.511Z,998.10
2019-03-17T10:42:36.546Z,998.05
2019-03-17T10:43:36.570Z,998.06
2019-03-17T10:44:36.597Z,998.06
2019-03-17T10:45:36.629Z,998.00
2019-03-17T10:46:36.653Z,997.99
2019-03-17T10:47:36.687Z,998.00
2019-03-17T10:48:36.711Z,997.97
2019-03-17T10:49:36.736Z,997.90
2019-03-17T10:50:48.759Z,998.00
2019-03-17T10:51:36.797Z,997.95
2019-03-17T10:52:36.822Z,997.95
2019-03-17T10:53:36.849Z,997.98
2019-03-17T10:54:36.882Z,997.92
2019-03-17T10:55:36.907Z,997.96
2019-03-17T10:56:36.940Z,997.96
2019-03-17T10:57:36.960Z,997.90
2019-03-17T10:58:36.988Z,997.87
2019-03-17T10:59:37.019Z,997.91
2019-03-17T11:00:37.047Z,997.90
2019-03-17T11:01:37.074Z,997.88
2019-03-17T11:02:37.107Z,997.81
2019-03-17T11:03:37.131Z,997.80
2019-03-17T11:04:37.160Z,997.84
2019-03-17T11:05:37.188Z,997.87
2019-03-17T11:06:37.215Z,997.83
2019-03-17T11:07:37.246Z,997.83
2019-03-17T11:08:37.333Z,997.82
2019-03-17T11:09:37.302Z,997.85
2019-03-17T11:10:37.328Z,997.79
2019-03-17T11:11:37.362Z,997.79
2019-03-17T11:12:37.384Z,997.79
2019-03-17T11:13:37.413Z,997.79
2019-03-17T11:14:37.441Z,997.75
2019-03-17T11:15:37.470Z,997.80
2019-03-17T11:16:37.496Z,997.78
2019-03-17T11:17:37.525Z,997.67
2019-03-17T11:18:37.554Z,997.73
2019-03-17T11:19:37.583Z,997.73
2019-03-17T11:20:37.613Z,997.84
2019-03-17T11:21:37.641Z,997.80
2019-03-17T11:22:37.667Z,997.83
2019-03-17T11:23:37.699Z,997.75
2019-03-17T11:24:37.726Z,997.76
2019-03-17T11:25:37.751Z,997.64
2019-03-17T11:26:37.782Z,997.76
2019-03-17T11:27:37.811Z,997.81
2019-03-17T11:28:37.843Z,997.74
2019-03-17T11:29:37.869Z,997.70
2019-03-17T11:30:37.895Z,997.73
2019-03-17T11:31:37.935Z,997.66
2019-03-17T11:32:37.951Z,997.63
2019-03-17T11:33:37.982Z,997.60
2019-03-17T11:34:38.011Z,997.65
2019-03-17T11:35:38.038Z,997.59
2019-03-17T11:36:38.066Z,997.60
2019-03-17T11:37:38.094Z,997.53
2019-03-17T11:38:38.122Z,997.50
2019-03-17T11:39:38.325Z,997.50
2019-03-17T11:40:38.183Z,997.42
2019-03-17T11:41:38.207Z,997.39
2019-03-17T11:42:38.236Z,997.42
2019-03-17T11:43:38.264Z,997.38
2019-03-17T11:44:38.295Z,997.33
2019-03-17T11:45:38.331Z,997.20
2019-03-17T11:46:38.350Z,997.31
2019-03-17T11:47:38.378Z,997.39
2019-03-17T11:48:38.407Z,997.22
2019-03-17T11:49:38.436Z,997.36
2019-03-17T11:50:38.469Z,997.32
2019-03-17T11:51:38.494Z,997.29
2019-03-17T11:52:38.524Z,997.25
2019-03-17T11:53:38.552Z,997.26
2019-03-17T11:54:38.588Z,997.34
2019-03-17T11:55:38.613Z,997.24
2019-03-17T11:56:38.638Z,997.20
2019-03-17T11:57:38.665Z,997.24
2019-03-17T11:58:38.696Z,997.23
2019-03-17T11:59:38.746Z,997.26
2019-03-17T12:00:38.753Z,997.37
2019-03-17T12:01:38.779Z,997.27
2019-03-17T12:02:38.814Z,997.31
2019-03-17T12:03:38.838Z,997.23
2019-03-17T12:04:38.866Z,997.31
2019-03-17T12:05:38.894Z,997.17
2019-03-17T12:06:38.923Z,997.27
2019-03-17T12:07:38.954Z,997.24
2019-03-17T12:08:38.980Z,997.21
2019-03-17T12:09:49.669Z,997.23
2019-03-17T12:10:39.040Z,997.22
2019-03-17T12:11:39.065Z,997.29
2019-03-17T12:12:39.097Z,997.28
2019-03-17T12:13:39.129Z,997.23
2019-03-17T12:14:39.152Z,997.18
2019-03-17T12:15:39.180Z,997.21